Time;durP1;ratioP1;P1;durP2;ratioP2;P2;SDS_P1;SDS_P2;PMS_P1;PMS_P2;Temp;Humidity;BMP_temperature;BMP_pressure;BME280_temperature;BME280_humidity;BME280_pressure;Samples;Min_cycle;Max_cycle;Signal;HPM_P1;HPM_P2
2022/07/31 00:00:05;;;;;;;;;;;;;;;19.25;46.77;97117.44;30001;983;1880;-58
2022/07/31 00:00:35;;;;;;;;;;;;;;;19.25;46.84;97122.97;30001;983;1881;-59
2022/07/31 00:01:06;;;;;;;;;;;;;;;19.25;47.01;97118.25;30001;983;1868;-59
2022/07/31 00:01:37;;;;;;;;;;;;;;;19.25;46.82;97121.00;30001;983;1872;-59
2022/07/31 00:02:11;;;;;;;;;;;;;;;19.26;46.89;97113.56;30001;983;1850;-59
2022/07/31 00:02:43;;;;;;;;;;;;;;;19.26;46.64;97117.12;30001;983;1881;-59
2022/07/31 00:03:14;;;;;;;;;;;;;;;19.26;46.78;97116.31;30001;982;1881;-60
2022/07/31 00:03:45;;;;;;;;;;;;;;;19.27;46.61;97115.16;30001;982;1881;-59
2022/07/31 00:04:16;;;;;;;;;;;;;;;19.27;46.90;97109.66;30001;982;1881;-59
2022/07/31 00:04:46;;;;;;;;;;;;;;;19.27;46.50;97112.41;30001;982;1881;-59
2022/07/31 00:05:17;;;;;;;;;;;;;;;19.27;46.71;97112.41;30001;982;1882;-59
2022/07/31 00:05:48;;;;;;;;;;;;;;;19.27;46.53;97113.22;30001;982;1882;-59
2022/07/31 00:06:19;;;;;;;;;;;;;;;19.27;46.33;97115.97;30001;983;1867;-59
2022/07/31 00:06:50;;;;;;;;;;;;;;;19.28;46.64;97112.06;30001;983;1872;-59
2022/07/31 00:07:21;;;;;;;;;;;;;;;19.27;46.75;97118.72;30001;983;1881;-59
2022/07/31 00:07:52;;;;;;;;;;;;;;;19.27;46.76;97112.41;30001;983;1868;-59
2022/07/31 00:08:23;;;;;;;;;;;;;;;19.27;46.80;97117.91;30001;983;1872;-59
2022/07/31 00:08:54;;;;;;;;;;;;;;;19.26;46.78;97116.31;30001;983;1881;-59
2022/07/31 00:09:25;;;;;;;;;;;;;;;19.25;46.86;97115.50;30001;983;1881;-60
2022/07/31 00:09:55;;;;;;;;;;;;;;;19.25;47.17;97121.00;30001;983;1881;-59
2022/07/31 00:10:26;;;;;;;;;;;;;;;19.24;47.17;97116.66;30001;982;1881;-59
2022/07/31 00:10:57;;;;;;;;;;;;;;;19.23;47.28;97117.78;30001;982;1868;-59
2022/07/31 00:11:28;;;;;;;;;;;;;;;19.22;47.30;97116.19;30001;982;1873;-58
2022/07/31 00:11:59;;;;;;;;;;;;;;;19.22;47.05;97121.69;30001;982;1881;-59
2022/07/31 00:12:33;;;;;;;;;;;;;;;19.21;47.19;97113.78;30001;982;1881;-60
2022/07/31 00:13:04;;;;;;;;;;;;;;;19.19;47.25;97122.38;30001;982;1868;-59
2022/07/31 00:13:35;;;;;;;;;;;;;;;19.17;47.16;97116.41;30001;982;1873;-59
2022/07/31 00:14:11;;;;;;;;;;;;;;;19.18;47.17;97115.28;30001;983;1867;-59
2022/07/31 00:14:42;;;;;;;;;;;;;;;19.16;47.16;97111.25;30001;983;1872;-60
2022/07/31 00:15:13;;;;;;;;;;;;;;;19.15;47.01;97115.94;30001;983;1881;-59
2022/07/31 00:15:45;;;;;;;;;;;;;;;19.14;47.41;97108.84;30001;983;1881;-59
2022/07/31 00:16:16;;;;;;;;;;;;;;;19.14;47.06;97111.59;30001;983;1868;-59
2022/07/31 00:16:46;;;;;;;;;;;;;;;19.12;47.40;97111.13;30001;983;1872;-59
2022/07/31 00:17:17;;;;;;;;;;;;;;;19.12;47.08;97116.62;30001;983;1881;-59
2022/07/31 00:17:48;;;;;;;;;;;;;;;19.13;47.28;97114.69;30001;983;1881;-59
2022/07/31 00:18:19;;;;;;;;;;;;;;;19.12;47.01;97113.88;30001;982;1881;-59
2022/07/31 00:18:50;;;;;;;;;;;;;;;19.11;47.43;97112.28;30001;982;1881;-59
2022/07/31 00:19:21;;;;;;;;;;;;;;;19.11;47.37;97109.53;30001;982;1881;-59
2022/07/31 00:19:51;;;;;;;;;;;;;;;19.11;47.30;97105.97;30001;982;1881;-59
2022/07/31 00:20:22;;;;;;;;;;;;;;;19.12;47.10;97108.38;30001;982;1882;-59
2022/07/31 00:20:53;;;;;;;;;;;;;;;19.11;47.47;97112.28;30001;982;1882;-59
2022/07/31 00:21:24;;;;;;;;;;;;;;;19.11;47.22;97112.28;30001;983;1867;-59
2022/07/31 00:21:55;;;;;;;;;;;;;;;19.11;47.16;97105.97;30001;983;1872;-59
2022/07/31 00:22:25;;;;;;;;;;;;;;;19.11;46.92;97115.03;30001;983;1881;-58
2022/07/31 00:22:56;;;;;;;;;;;;;;;19.11;47.11;97109.53;30001;983;1881;-59
2022/07/31 00:23:29;;;;;;;;;;;;;;;19.12;46.79;97111.13;30001;983;1881;-60
2022/07/31 00:24:00;;;;;;;;;;;;;;;19.12;47.19;97110.34;30001;983;1881;-59
2022/07/31 00:24:31;;;;;;;;;;;;;;;19.12;47.03;97111.13;30001;983;1881;-60
2022/07/31 00:25:02;;;;;;;;;;;;;;;19.11;47.29;97104.03;30001;983;1881;-59
2022/07/31 00:25:33;;;;;;;;;;;;;;;19.11;47.02;97104.03;30001;982;1881;-59
2022/07/31 00:26:04;;;;;;;;;;;;;;;19.11;47.40;97106.78;30001;982;1881;-59
2022/07/31 00:26:35;;;;;;;;;;;;;;;19.11;47.30;97104.03;30001;982;1868;-59
2022/07/31 00:27:09;;;;;;;;;;;;;;;19.10;47.16;97102.41;30001;982;1873;-58
2022/07/31 00:27:40;;;;;;;;;;;;;;;19.11;47.32;97109.53;30001;982;1881;-59
2022/07/31 00:28:11;;;;;;;;;;;;;;;19.11;47.33;97105.97;30001;982;1868;-59
2022/07/31 00:28:42;;;;;;;;;;;;;;;19.09;47.02;97111.81;30001;982;1873;-59
2022/07/31 00:29:13;;;;;;;;;;;;;;;19.09;47.50;97111.81;30001;983;1881;-60
2022/07/31 00:29:43;;;;;;;;;;;;;;;19.08;48.12;97115.72;30001;983;1881;-58
2022/07/31 00:30:16;;;;;;;;;;;;;;;19.03;48.38;97108.50;30001;965;1899;-59
2022/07/31 00:30:47;;;;;;;;;;;;;;;19.02;48.02;97109.66;30001;965;1899;-60
2022/07/31 00:31:18;;;;;;;;;;;;;;;19.02;48.25;97117.09;30001;983;1787;-59
2022/07/31 00:31:49;;;;;;;;;;;;;;;19.01;48.13;97115.50;30001;983;1868;-59
2022/07/31 00:32:21;;;;;;;;;;;;;;;19.00;48.14;97113.88;30001;983;1872;-59
2022/07/31 00:32:52;;;;;;;;;;;;;;;19.00;48.17;97113.88;30001;983;1881;-59
2022/07/31 00:33:23;;;;;;;;;;;;;;;18.99;48.36;97109.53;30001;982;1881;-60
2022/07/31 00:33:54;;;;;;;;;;;;;;;18.99;48.31;97117.78;30001;982;1881;-59
2022/07/31 00:34:24;;;;;;;;;;;;;;;18.97;48.55;97115.38;30001;982;1881;-59
2022/07/31 00:34:55;;;;;;;;;;;;;;;18.98;48.48;97110.69;30001;982;1868;-59
2022/07/31 00:35:26;;;;;;;;;;;;;;;18.97;48.63;97115.38;30001;982;1873;-59
2022/07/31 00:36:00;;;;;;;;;;;;;;;18.96;48.59;97118.47;30001;983;1867;-59
2022/07/31 00:36:31;;;;;;;;;;;;;;;18.97;48.57;97114.56;30001;983;1872;-60
2022/07/31 00:37:02;;;;;;;;;;;;;;;18.96;48.59;97112.97;30001;983;1881;-60
2022/07/31 00:37:37;;;;;;;;;;;;;;;18.94;48.87;97116.06;30001;983;1881;-59
2022/07/31 00:38:09;;;;;;;;;;;;;;;18.94;48.79;97116.06;30001;983;1881;-60
2022/07/31 00:38:41;;;;;;;;;;;;;;;18.94;49.50;97116.06;30001;983;1868;-60
2022/07/31 00:39:11;;;;;;;;;;;;;;;18.93;49.50;97116.41;30001;983;1872;-59
2022/07/31 00:39:43;;;;;;;;;;;;;;;18.94;49.66;97118.00;30001;983;1881;-59
2022/07/31 00:40:15;;;;;;;;;;;;;;;18.93;49.88;97121.91;30001;983;1881;-59
2022/07/31 00:40:46;;;;;;;;;;;;;;;18.92;50.03;97118.34;30001;982;1881;-59
2022/07/31 00:41:17;;;;;;;;;;;;;;;18.93;50.07;97119.16;30001;982;1868;-60
2022/07/31 00:41:49;;;;;;;;;;;;;;;18.92;50.22;97120.28;30001;982;1873;-59
2022/07/31 00:42:21;;;;;;;;;;;;;;;18.90;50.85;97120.63;30001;982;1881;-59
2022/07/31 00:42:52;;;;;;;;;;;;;;;18.90;51.03;97125.31;30001;982;1881;-59
2022/07/31 00:43:24;;;;;;;;;;;;;;;18.87;51.00;97126.00;30001;983;1881;-60
2022/07/31 00:43:55;;;;;;;;;;;;;;;18.86;51.11;97129.88;30001;983;1881;-58
2022/07/31 00:44:31;;;;;;;;;;;;;;;18.86;51.42;97127.16;30001;983;1881;-59
2022/07/31 00:45:02;;;;;;;;;;;;;;;18.85;51.17;97133.78;30001;983;1881;-59
2022/07/31 00:45:33;;;;;;;;;;;;;;;18.83;50.98;97128.63;30001;983;1881;-58
2022/07/31 00:46:04;;;;;;;;;;;;;;;18.79;53.21;97140.63;30001;983;1868;-60
2022/07/31 00:46:38;;;;;;;;;;;;;;;18.71;52.89;97140.38;30001;983;1872;-59
2022/07/31 00:47:09;;;;;;;;;;;;;;;18.68;52.33;97135.59;30001;963;1810;-59
2022/07/31 00:47:40;;;;;;;;;;;;;;;18.66;53.26;97137.06;30001;983;1881;-59
2022/07/31 00:48:11;;;;;;;;;;;;;;;18.65;52.43;97132.72;30001;982;1881;-59
2022/07/31 00:48:43;;;;;;;;;;;;;;;18.63;53.67;97137.75;30001;982;1881;-58
2022/07/31 00:49:13;;;;;;;;;;;;;;;18.62;52.42;97136.94;30001;982;1881;-59
2022/07/31 00:49:44;;;;;;;;;;;;;;;18.62;52.41;97127.91;30001;982;1881;-59
2022/07/31 00:50:15;;;;;;;;;;;;;;;18.62;52.50;97131.44;30001;982;1881;-58
2022/07/31 00:50:48;;;;;;;;;;;;;;;18.62;52.11;97131.44;30001;983;1867;-60
2022/07/31 00:51:19;;;;;;;;;;;;;;;18.61;51.94;97129.03;30001;983;1872;-59
2022/07/31 00:51:50;;;;;;;;;;;;;;;18.60;51.87;97130.97;30001;983;1881;-59
2022/07/31 00:52:21;;;;;;;;;;;;;;;18.60;52.12;97132.94;30001;983;1881;-59
2022/07/31 00:52:52;;;;;;;;;;;;;;;18.58;54.08;97135.19;30001;983;1881;-59
2022/07/31 00:53:23;;;;;;;;;;;;;;;18.53;53.19;97130.69;30001;983;1881;-60
2022/07/31 00:53:55;;;;;;;;;;;;;;;18.52;53.03;97134.59;30001;983;1881;-59
2022/07/31 00:54:26;;;;;;;;;;;;;;;18.50;53.69;97133.31;30001;983;1881;-60
2022/07/31 00:54:56;;;;;;;;;;;;;;;18.47;53.73;97140.28;30001;983;1881;-59
2022/07/31 00:55:27;;;;;;;;;;;;;;;18.45;55.15;97142.56;30001;983;1881;-60
2022/07/31 00:55:58;;;;;;;;;;;;;;;18.42;53.77;97138.53;30001;982;1868;-58
2022/07/31 00:56:32;;;;;;;;;;;;;;;18.40;53.88;97134.53;30001;982;1873;-58
2022/07/31 00:57:04;;;;;;;;;;;;;;;18.38;53.89;97134.06;30001;982;1881;-60
2022/07/31 00:57:35;;;;;;;;;;;;;;;18.38;54.80;97136.81;30001;982;1868;-59
2022/07/31 00:58:06;;;;;;;;;;;;;;;18.36;56.00;97150.09;30001;983;1872;-59
2022/07/31 00:58:39;;;;;;;;;;;;;;;18.33;54.62;97140.59;30001;983;1881;-60
2022/07/31 00:59:11;;;;;;;;;;;;;;;18.32;54.66;97140.91;30001;983;1881;-60
2022/07/31 00:59:42;;;;;;;;;;;;;;;18.32;54.75;97132.69;30001;983;1881;-58
2022/07/31 01:00:14;;;;;;;;;;;;;;;18.32;54.12;97132.69;30001;983;1881;-60
2022/07/31 01:00:45;;;;;;;;;;;;;;;18.32;53.81;97138.19;30001;983;1842;-59
2022/07/31 01:01:16;;;;;;;;;;;;;;;18.32;53.85;97132.69;30001;983;1881;-60
2022/07/31 01:01:47;;;;;;;;;;;;;;;18.30;54.47;97134.97;30001;983;1868;-61
2022/07/31 01:02:17;;;;;;;;;;;;;;;18.28;54.66;97140.00;30001;983;1872;-60
2022/07/31 01:02:48;;;;;;;;;;;;;;;18.24;55.21;97141.78;30001;983;1881;-60
2022/07/31 01:03:19;;;;;;;;;;;;;;;18.22;55.36;97149.56;30001;982;1881;-60
2022/07/31 01:03:50;;;;;;;;;;;;;;;18.19;55.37;97150.22;30001;982;1852;-60
2022/07/31 01:04:21;;;;;;;;;;;;;;;18.17;55.23;97142.31;30001;982;1881;-60
2022/07/31 01:04:52;;;;;;;;;;;;;;;18.16;54.94;97139.91;30001;982;1881;-60
2022/07/31 01:05:23;;;;;;;;;;;;;;;18.15;55.05;97143.81;30002;803;1014;-60
2022/07/31 01:05:54;;;;;;;;;;;;;;;18.15;54.69;97143.81;30001;983;1881;-61
2022/07/31 01:06:24;;;;;;;;;;;;;;;18.16;54.72;97145.41;30001;983;1881;-59
2022/07/31 01:07:01;;;;;;;;;;;;;;;18.16;54.77;97137.16;30001;983;1868;-59
2022/07/31 01:07:32;;;;;;;;;;;;;;;18.16;54.36;97140.72;30001;983;1872;-59
2022/07/31 01:08:03;;;;;;;;;;;;;;;18.16;54.35;97139.91;30001;983;1881;-60
2022/07/31 01:08:35;;;;;;;;;;;;;;;18.16;54.07;97135.22;30001;983;1881;-60
2022/07/31 01:09:06;;;;;;;;;;;;;;;18.17;54.29;97141.53;30001;983;1868;-60
2022/07/31 01:09:37;;;;;;;;;;;;;;;18.17;53.99;97138.78;30001;983;1872;-59
2022/07/31 01:10:10;;;;;;;;;;;;;;;18.16;53.77;97142.66;30001;982;1881;-60
2022/07/31 01:11:00;;;;;;;;;;;;;;;18.15;53.63;97139.12;30001;982;1881;-60
2022/07/31 01:11:35;;;;;;;;;;;;;;;18.15;53.85;97138.31;30001;982;1877;-60
2022/07/31 01:12:17;;;;;;;;;;;;;;;18.15;53.62;97138.31;30001;982;1881;-59
2022/07/31 01:12:58;;;;;;;;;;;;;;;18.13;54.18;97132.34;30001;982;1868;-59
2022/07/31 01:13:34;;;;;;;;;;;;;;;18.11;54.17;97142.87;30001;983;1872;-59
2022/07/31 01:14:06;;;;;;;;;;;;;;;18.08;54.07;97136.91;30001;983;1881;-59
2022/07/31 01:14:45;;;;;;;;;;;;;;;18.06;54.83;97146.59;30001;983;1880;-60
2022/07/31 01:15:17;;;;;;;;;;;;;;;18.04;55.52;97144.19;30001;983;1881;-60
2022/07/31 01:15:49;;;;;;;;;;;;;;;18.01;54.62;97144.91;30001;983;1881;-60
2022/07/31 01:16:21;;;;;;;;;;;;;;;18.02;54.94;97140.19;30001;983;1881;-60
2022/07/31 01:16:53;;;;;;;;;;;;;;;18.00;55.19;97143.28;30001;983;1881;-60
2022/07/31 01:17:26;;;;;;;;;;;;;;;18.01;54.92;97139.41;30001;986;1868;-59
2022/07/31 01:17:59;;;;;;;;;;;;;;;18.00;54.34;97143.28;30001;982;1872;-59
2022/07/31 01:18:32;;;;;;;;;;;;;;;18.01;54.28;97135.84;30001;982;1881;-59
2022/07/31 01:19:07;;;;;;;;;;;;;;;18.02;54.09;97137.44;30001;982;1881;-61
2022/07/31 01:19:41;;;;;;;;;;;;;;;18.02;53.79;97135.50;30001;982;1881;-60
2022/07/31 01:20:12;;;;;;;;;;;;;;;18.03;53.56;97131.59;30001;986;1882;-60
2022/07/31 01:20:45;;;;;;;;;;;;;;;18.02;53.67;97134.69;30001;982;1882;-59
2022/07/31 01:21:24;;;;;;;;;;;;;;;18.03;53.81;97136.28;30001;983;1881;-59
2022/07/31 01:22:04;;;;;;;;;;;;;;;18.02;53.88;97130.00;30001;983;1881;-59
2022/07/31 01:22:54;;;;;;;;;;;;;;;18.02;53.78;97138.22;30001;983;1868;-59
2022/07/31 01:23:36;;;;;;;;;;;;;;;18.03;54.19;97139.84;30001;983;1872;-59
2022/07/31 01:24:33;;;;;;;;;;;;;;;18.02;53.89;97135.50;30001;983;1881;-59
2022/07/31 01:25:10;;;;;;;;;;;;;;;17.96;55.00;97136.84;30001;982;1877;-59
2022/07/31 01:26:08;;;;;;;;;;;;;;;17.94;55.41;97139.12;30001;982;1881;-60
2022/07/31 01:26:47;;;;;;;;;;;;;;;17.88;55.66;97140.47;30001;982;1868;-59
2022/07/31 01:27:36;;;;;;;;;;;;;;;17.87;55.35;97138.84;30001;982;1873;-60
2022/07/31 01:28:24;;;;;;;;;;;;;;;17.89;54.67;97144.00;30001;982;1864;-60
2022/07/31 01:28:59;;;;;;;;;;;;;;;17.88;55.02;97145.94;30001;983;1868;-59
2022/07/31 01:29:48;;;;;;;;;;;;;;;17.88;54.58;97134.97;30001;983;1876;-59
2022/07/31 01:30:22;;;;;;;;;;;;;;;17.89;54.74;97131.09;30001;983;1872;-59
2022/07/31 01:30:56;;;;;;;;;;;;;;;17.89;54.09;97136.56;30001;983;1877;-60
2022/07/31 01:31:57;;;;;;;;;;;;;;;17.88;54.32;97134.16;30001;983;1877;-60
2022/07/31 01:32:31;;;;;;;;;;;;;;;17.89;53.96;97138.50;30001;983;1859;-59
2022/07/31 01:33:06;;;;;;;;;;;;;;;17.87;53.88;97133.34;30001;982;1868;-59
2022/07/31 01:33:53;;;;;;;;;;;;;;;17.86;54.44;97133.69;30001;982;1877;-59
2022/07/31 01:34:44;;;;;;;;;;;;;;;17.77;56.11;97150.22;30001;982;1877;-59
2022/07/31 01:35:24;;;;;;;;;;;;;;;17.71;55.61;97146.03;30001;982;1877;-61
2022/07/31 01:36:01;;;;;;;;;;;;;;;17.68;55.62;97139.28;30001;983;1876;-59
2022/07/31 01:36:36;;;;;;;;;;;;;;;17.66;57.01;97149.00;30001;983;1876;-60
2022/07/31 01:37:32;;;;;;;;;;;;;;;17.64;56.66;97140.28;30001;983;1876;-59
2022/07/31 01:38:07;;;;;;;;;;;;;;;17.66;56.24;97143.53;30001;983;1859;-59
2022/07/31 01:38:41;;;;;;;;;;;;;;;17.66;55.80;97143.53;30001;983;1868;-59
2022/07/31 01:39:12;;;;;;;;;;;;;;;17.67;55.44;97137.66;30001;983;1877;-59
2022/07/31 01:39:45;;;;;;;;;;;;;;;17.68;55.56;97138.47;30001;983;1877;-60
2022/07/31 01:40:21;;;;;;;;;;;;;;;17.67;55.30;97139.66;30001;982;1877;-60
2022/07/31 01:41:00;;;;;;;;;;;;;;;17.68;55.26;97135.72;30001;982;1877;-60
2022/07/31 01:41:37;;;;;;;;;;;;;;;17.68;55.01;97130.25;30001;982;1877;-60
2022/07/31 01:42:13;;;;;;;;;;;;;;;17.69;55.19;97131.84;30001;982;1877;-59
2022/07/31 01:42:47;;;;;;;;;;;;;;;17.69;54.97;97131.84;30001;983;1863;-60
2022/07/31 01:43:22;;;;;;;;;;;;;;;17.68;54.67;97128.31;30001;983;1867;-59
2022/07/31 01:43:54;;;;;;;;;;;;;;;17.69;55.07;97132.66;30001;983;1876;-59
2022/07/31 01:44:26;;;;;;;;;;;;;;;17.70;55.09;97136.22;30001;983;1876;-58
2022/07/31 01:44:59;;;;;;;;;;;;;;;17.70;54.81;97133.47;30001;983;1876;-59
2022/07/31 01:45:32;;;;;;;;;;;;;;;17.70;54.68;97123.28;30001;983;1863;-59
2022/07/31 01:46:03;;;;;;;;;;;;;;;17.71;54.79;97129.59;30001;983;1868;-58
2022/07/31 01:46:35;;;;;;;;;;;;;;;17.69;57.34;97137.34;30002;807;1014;-58
2022/07/31 01:47:06;;;;;;;;;;;;;;;17.66;57.67;97140.78;30001;983;1877;-59
2022/07/31 01:47:38;;;;;;;;;;;;;;;17.62;57.21;97137.06;30001;982;1877;-58
2022/07/31 01:48:12;;;;;;;;;;;;;;;17.60;56.63;97142.06;30001;982;1864;-59
2022/07/31 01:48:44;;;;;;;;;;;;;;;17.59;57.69;97133.03;30001;982;1868;-58
2022/07/31 01:49:15;;;;;;;;;;;;;;;17.57;58.61;97150.97;30001;982;1877;-58
2022/07/31 01:49:48;;;;;;;;;;;;;;;17.53;58.78;97139.03;30001;982;1877;-58
2022/07/31 01:50:20;;;;;;;;;;;;;;;17.51;58.29;97144.84;30001;983;1876;-58
2022/07/31 01:50:53;;;;;;;;;;;;;;;17.50;57.78;97132.28;30001;983;1876;-59
2022/07/31 01:51:24;;;;;;;;;;;;;;;17.49;57.61;97140.84;30001;983;1876;-60
2022/07/31 01:51:56;;;;;;;;;;;;;;;17.51;57.62;97138.56;30001;983;1876;-58
2022/07/31 01:52:28;;;;;;;;;;;;;;;17.52;57.06;97137.44;30001;983;1876;-59
2022/07/31 01:52:59;;;;;;;;;;;;;;;17.52;56.83;97137.44;30001;983;1863;-58
2022/07/31 01:53:30;;;;;;;;;;;;;;;17.52;56.71;97129.19;30001;983;1868;-58
2022/07/31 01:54:02;;;;;;;;;;;;;;;17.52;56.64;97131.94;30001;983;1877;-58
2022/07/31 01:54:34;;;;;;;;;;;;;;;17.53;56.61;97134.34;30001;983;1877;-59
2022/07/31 01:55:06;;;;;;;;;;;;;;;17.54;56.54;97135.16;30001;983;1877;-59
2022/07/31 01:55:40;;;;;;;;;;;;;;;17.55;56.26;97134.03;30001;982;1877;-58
2022/07/31 01:56:11;;;;;;;;;;;;;;;17.56;56.45;97135.63;30001;982;1877;-59
2022/07/31 01:56:43;;;;;;;;;;;;;;;17.56;56.07;97130.16;30001;982;1877;-58
2022/07/31 01:57:14;;;;;;;;;;;;;;;17.56;56.18;97127.41;30001;982;1864;-59
2022/07/31 01:57:46;;;;;;;;;;;;;;;17.55;56.09;97128.53;30001;983;1868;-59
2022/07/31 01:58:24;;;;;;;;;;;;;;;17.56;56.08;97130.16;30001;983;1863;-58
2022/07/31 01:58:57;;;;;;;;;;;;;;;17.56;56.00;97132.88;30001;983;1868;-58
2022/07/31 01:59:29;;;;;;;;;;;;;;;17.56;56.30;97130.16;30001;983;1863;-58
2022/07/31 02:00:02;;;;;;;;;;;;;;;17.56;56.14;97121.91;30001;983;1868;-58
2022/07/31 02:00:33;;;;;;;;;;;;;;;17.57;56.50;97123.53;30001;983;1877;-59
2022/07/31 02:01:04;;;;;;;;;;;;;;;17.57;56.49;97129.00;30001;983;1864;-58
2022/07/31 02:01:37;;;;;;;;;;;;;;;17.57;56.29;97131.75;30001;983;1868;-59
2022/07/31 02:02:08;;;;;;;;;;;;;;;17.57;56.26;97135.31;30001;982;1877;-59
2022/07/31 02:02:39;;;;;;;;;;;;;;;17.57;56.51;97123.53;30001;982;1877;-59
2022/07/31 02:03:11;;;;;;;;;;;;;;;17.58;56.44;97130.63;30001;982;1864;-59
2022/07/31 02:03:43;;;;;;;;;;;;;;;17.57;56.62;97121.59;30001;982;1868;-59
2022/07/31 02:04:16;;;;;;;;;;;;;;;17.58;56.28;97130.63;30001;982;1877;-59
2022/07/31 02:04:48;;;;;;;;;;;;;;;17.58;56.45;97134.16;30001;982;1877;-58
2022/07/31 02:05:20;;;;;;;;;;;;;;;17.58;56.61;97125.94;30001;983;1876;-58
2022/07/31 02:05:52;;;;;;;;;;;;;;;17.58;56.54;97130.63;30001;983;1876;-58
2022/07/31 02:06:24;;;;;;;;;;;;;;;17.59;56.26;97133.03;30001;983;1876;-58
2022/07/31 02:06:55;;;;;;;;;;;;;;;17.58;56.06;97125.13;30001;983;1877;-58
2022/07/31 02:07:28;;;;;;;;;;;;;;;17.58;56.32;97130.63;30001;983;1877;-59
2022/07/31 02:08:00;;;;;;;;;;;;;;;17.57;56.44;97118.84;30001;983;1877;-58
2022/07/31 02:08:32;;;;;;;;;;;;;;;17.56;56.44;97121.91;30001;983;1863;-58
2022/07/31 02:09:04;;;;;;;;;;;;;;;17.55;56.26;97125.78;30001;983;1868;-58
2022/07/31 02:09:38;;;;;;;;;;;;;;;17.55;56.13;97120.31;30001;982;1877;-58
2022/07/31 02:10:11;;;;;;;;;;;;;;;17.53;56.42;97120.63;30001;982;1877;-59
2022/07/31 02:10:43;;;;;;;;;;;;;;;17.53;56.03;97122.56;30001;982;1864;-58
2022/07/31 02:11:15;;;;;;;;;;;;;;;17.52;56.41;97120.97;30001;982;1868;-59
2022/07/31 02:11:47;;;;;;;;;;;;;;;17.51;56.13;97125.66;30001;982;1877;-59
2022/07/31 02:12:19;;;;;;;;;;;;;;;17.49;56.42;97122.44;30001;982;1877;-59
2022/07/31 02:12:50;;;;;;;;;;;;;;;17.49;56.19;97127.13;30001;983;1876;-59
2022/07/31 02:13:22;;;;;;;;;;;;;;;17.48;56.46;97126.31;30001;983;1876;-59
2022/07/31 02:13:54;;;;;;;;;;;;;;;17.48;56.29;97120.03;30001;983;1876;-58
2022/07/31 02:14:25;;;;;;;;;;;;;;;17.47;56.21;97127.44;30001;983;1863;-59
2022/07/31 02:14:57;;;;;;;;;;;;;;;17.47;56.27;97118.41;30001;983;1868;-59
2022/07/31 02:15:31;;;;;;;;;;;;;;;17.46;56.28;97127.78;30001;962;1793;-59
2022/07/31 02:16:03;;;;;;;;;;;;;;;17.46;56.34;97120.34;30001;983;1877;-58
2022/07/31 02:16:36;;;;;;;;;;;;;;;17.44;56.66;97125.38;30001;983;1877;-59
2022/07/31 02:17:08;;;;;;;;;;;;;;;17.45;56.61;97126.97;30001;982;1864;-58
2022/07/31 02:17:40;;;;;;;;;;;;;;;17.43;56.47;97124.56;30001;982;1868;-59
2022/07/31 02:18:11;;;;;;;;;;;;;;;17.45;56.08;97123.44;30001;982;1877;-59
2022/07/31 02:18:42;;;;;;;;;;;;;;;17.45;56.15;97123.44;30001;982;1877;-58
2022/07/31 02:19:13;;;;;;;;;;;;;;;17.45;55.97;97128.91;30001;982;1877;-59
2022/07/31 02:19:44;;;;;;;;;;;;;;;17.46;56.16;97122.28;30001;982;1864;-59
2022/07/31 02:20:15;;;;;;;;;;;;;;;17.47;56.42;97129.38;30001;982;1855;-59
2022/07/31 02:20:49;;;;;;;;;;;;;;;17.46;56.49;97122.28;30001;983;1876;-59
2022/07/31 02:21:20;;;;;;;;;;;;;;;17.45;56.39;97126.16;30001;983;1876;-59
2022/07/31 02:21:50;;;;;;;;;;;;;;;17.45;56.58;97126.97;30001;983;1876;-58
2022/07/31 02:22:21;;;;;;;;;;;;;;;17.46;56.50;97127.78;30001;983;1784;-58
2022/07/31 02:22:53;;;;;;;;;;;;;;;17.46;56.74;97131.31;30001;983;1877;-58
2022/07/31 02:23:24;;;;;;;;;;;;;;;17.46;56.61;97131.31;30001;983;1877;-59
2022/07/31 02:24:03;;;;;;;;;;;;;;;17.47;56.75;97129.38;30001;983;1864;-59
2022/07/31 02:24:34;;;;;;;;;;;;;;;17.47;56.66;97123.91;30001;982;1868;-59
2022/07/31 02:25:06;;;;;;;;;;;;;;;17.46;56.91;97128.59;30001;982;1877;-58
2022/07/31 02:25:39;;;;;;;;;;;;;;;17.47;56.84;97126.66;30001;982;1877;-59
2022/07/31 02:26:10;;;;;;;;;;;;;;;17.47;56.58;97123.91;30001;982;1877;-58
2022/07/31 02:26:42;;;;;;;;;;;;;;;17.47;56.53;97121.97;30001;982;1877;-58
2022/07/31 02:27:13;;;;;;;;;;;;;;;17.48;56.56;97126.31;30001;982;1864;-58
2022/07/31 02:27:45;;;;;;;;;;;;;;;17.48;56.50;97122.78;30001;982;1868;-58
2022/07/31 02:28:19;;;;;;;;;;;;;;;17.47;56.74;97119.22;30001;983;1876;-59
2022/07/31 02:28:51;;;;;;;;;;;;;;;17.50;56.39;97117.75;30001;983;1876;-59
2022/07/31 02:29:22;;;;;;;;;;;;;;;17.51;56.29;97119.37;30001;983;1863;-58
2022/07/31 02:29:54;;;;;;;;;;;;;;;17.52;56.37;97120.97;30001;983;1855;-58
2022/07/31 02:30:26;;;;;;;;;;;;;;;17.54;56.44;97118.69;30001;983;1877;-58
2022/07/31 02:30:58;;;;;;;;;;;;;;;17.54;56.52;97119.50;30001;983;1877;-59
2022/07/31 02:31:30;;;;;;;;;;;;;;;17.55;56.61;97118.38;30001;983;1877;-59
2022/07/31 02:32:02;;;;;;;;;;;;;;;17.56;56.41;97121.91;30001;983;1864;-59
2022/07/31 02:32:34;;;;;;;;;;;;;;;17.56;56.66;97114.50;30001;982;1868;-58
2022/07/31 02:33:07;;;;;;;;;;;;;;;17.58;56.73;97119.66;30001;982;1877;-58
2022/07/31 02:33:41;;;;;;;;;;;;;;;17.58;56.85;97125.94;30001;982;1877;-59
2022/07/31 02:34:12;;;;;;;;;;;;;;;17.59;56.69;97121.25;30001;982;1877;-58
2022/07/31 02:34:44;;;;;;;;;;;;;;;17.60;56.77;97118.19;30001;983;1863;-58
2022/07/31 02:35:16;;;;;;;;;;;;;;;17.60;56.84;97117.38;30001;983;1867;-58
2022/07/31 02:35:48;;;;;;;;;;;;;;;17.60;57.18;97114.63;30001;964;1793;-58
2022/07/31 02:36:20;;;;;;;;;;;;;;;17.63;57.27;97122.19;30001;959;1889;-58
2022/07/31 02:36:52;;;;;;;;;;;;;;;17.63;57.36;97116.72;30001;983;1868;-59
2022/07/31 02:37:24;;;;;;;;;;;;;;;17.62;56.92;97120.59;30001;983;1877;-58
2022/07/31 02:37:56;;;;;;;;;;;;;;;17.63;57.40;97114.78;30001;983;1877;-58
2022/07/31 02:38:27;;;;;;;;;;;;;;;17.63;56.99;97111.22;30001;983;1877;-58
2022/07/31 02:38:58;;;;;;;;;;;;;;;17.63;57.09;97119.47;30001;983;1877;-59
2022/07/31 02:39:31;;;;;;;;;;;;;;;17.63;57.32;97113.97;30001;983;1877;-59
2022/07/31 02:40:04;;;;;;;;;;;;;;;17.63;57.11;97116.72;30001;982;1864;-58
2022/07/31 02:40:38;;;;;;;;;;;;;;;17.63;57.32;97117.53;30001;982;1868;-59
2022/07/31 02:41:10;;;;;;;;;;;;;;;17.64;57.13;97112.84;30001;982;1877;-58
2022/07/31 02:41:41;;;;;;;;;;;;;;;17.64;57.35;97116.38;30001;982;1877;-58
2022/07/31 02:42:14;;;;;;;;;;;;;;;17.62;57.46;97115.09;30001;983;1876;-58
2022/07/31 02:42:46;;;;;;;;;;;;;;;17.62;57.56;97115.91;30001;983;1876;-59
2022/07/31 02:43:18;;;;;;;;;;;;;;;17.60;57.37;97112.69;30001;983;1876;-58
2022/07/31 02:43:49;;;;;;;;;;;;;;;17.62;57.80;97117.84;30001;983;1863;-59
2022/07/31 02:44:21;;;;;;;;;;;;;;;17.62;57.53;97117.84;30001;962;1889;-59
2022/07/31 02:44:55;;;;;;;;;;;;;;;17.61;57.69;97102.53;30001;983;1877;-58
2022/07/31 02:45:27;;;;;;;;;;;;;;;17.61;57.43;97106.06;30001;983;1877;-58
2022/07/31 02:45:58;;;;;;;;;;;;;;;17.60;57.74;97111.87;30001;983;1877;-58
2022/07/31 02:46:30;;;;;;;;;;;;;;;17.59;57.51;97121.25;30001;983;1864;-59
2022/07/31 02:47:04;;;;;;;;;;;;;;;17.57;57.86;97109.81;30001;983;1781;-59
2022/07/31 02:47:38;;;;;;;;;;;;;;;17.55;57.87;97110.13;30001;982;1877;-59
2022/07/31 02:48:09;;;;;;;;;;;;;;;17.55;57.97;97109.34;30001;982;1877;-59
2022/07/31 02:48:41;;;;;;;;;;;;;;;17.55;58.18;97112.09;30001;982;1877;-59
2022/07/31 02:49:12;;;;;;;;;;;;;;;17.55;58.57;97114.81;30001;982;1877;-58
2022/07/31 02:49:46;;;;;;;;;;;;;;;17.53;58.18;97112.41;30001;983;1876;-59
2022/07/31 02:50:18;;;;;;;;;;;;;;;17.53;58.28;97112.41;30001;983;1876;-58
2022/07/31 02:50:49;;;;;;;;;;;;;;;17.51;58.62;97109.19;30001;983;1876;-59
2022/07/31 02:51:21;;;;;;;;;;;;;;;17.51;58.56;97114.69;30001;983;1876;-59
2022/07/31 02:51:52;;;;;;;;;;;;;;;17.51;58.70;97117.41;30001;983;1863;-59
2022/07/31 02:52:23;;;;;;;;;;;;;;;17.50;58.39;97109.53;30001;983;1868;-58
2022/07/31 02:52:55;;;;;;;;;;;;;;;17.49;58.46;97110.66;30001;983;1877;-58
2022/07/31 02:53:26;;;;;;;;;;;;;;;17.48;58.40;97109.06;30001;983;1877;-58
2022/07/31 02:53:57;;;;;;;;;;;;;;;17.49;59.02;97113.41;30001;973;1895;-58
2022/07/31 02:54:28;;;;;;;;;;;;;;;17.48;58.73;97109.06;30001;983;1877;-59
2022/07/31 02:54:59;;;;;;;;;;;;;;;17.49;58.87;97111.47;30001;982;1877;-59
2022/07/31 02:55:30;;;;;;;;;;;;;;;17.50;58.53;97112.25;30001;982;1776;-58